Kananaskis, Canada
Current Conditions -  °F | °C
As of 7:00 PM on Thursday 18 Dec 2014 (Local Time) from CYBW Reporting Station
Clear Clear  
Wind Chill: 17°   Ceiling: Unl
Heat Index: 23°   Visibility: 9mi
Dew Point: 19°   Wind: 5mph
Humidity: 86%   Direction: 290°WNW
Pressure: 29.78"   Gusts: NA
Location:  50.93°N, 115.13°W
Report Text: CYBW 190200Z AUTO 29004KT 9SM CLR M05/M07 A2978 RMK SLP146
Loading
Personal Weather Stations






























Interactive Weather Map New forecast layout! Learn more

10-Day Weather Forecast

Advertisements
Track Severe Weather on mobile